sensor_id;sensor_type;location;lat;lon;timestamp;temperature;humidity
3752;DHT22;50827;47.014;7.652;2023-02-01T00:00:27;3.70;99.90
3752;DHT22;50827;47.014;7.652;2023-02-01T00:02:54;3.60;99.90
3752;DHT22;50827;47.014;7.652;2023-02-01T00:05:21;3.50;99.90
3752;DHT22;50827;47.014;7.652;2023-02-01T00:07:48;3.50;99.90
3752;DHT22;50827;47.014;7.652;2023-02-01T00:10:15;3.50;99.90
3752;DHT22;50827;47.014;7.652;2023-02-01T00:12:42;3.50;99.90
3752;DHT22;50827;47.014;7.652;2023-02-01T00:15:09;3.50;99.90
3752;DHT22;50827;47.014;7.652;2023-02-01T00:17:37;3.40;99.90
3752;DHT22;50827;47.014;7.652;2023-02-01T00:20:04;3.40;99.90
3752;DHT22;50827;47.014;7.652;2023-02-01T00:22:31;3.40;99.90
3752;DHT22;50827;47.014;7.652;2023-02-01T00:24:57;3.30;99.90
3752;DHT22;50827;47.014;7.652;2023-02-01T00:27:24;3.20;99.90
3752;DHT22;50827;47.014;7.652;2023-02-01T00:29:51;3.20;99.90
3752;DHT22;50827;47.014;7.652;2023-02-01T00:32:17;3.10;99.90
3752;DHT22;50827;47.014;7.652;2023-02-01T00:34:44;3.10;99.90
3752;DHT22;50827;47.014;7.652;2023-02-01T00:37:10;3.00;99.90
3752;DHT22;50827;47.014;7.652;2023-02-01T00:39:37;3.00;99.90
3752;DHT22;50827;47.014;7.652;2023-02-01T00:42:04;2.90;99.90
3752;DHT22;50827;47.014;7.652;2023-02-01T00:44:31;2.90;99.90
3752;DHT22;50827;47.014;7.652;2023-02-01T00:47:01;2.90;99.90
3752;DHT22;50827;47.014;7.652;2023-02-01T00:49:28;2.90;99.90
3752;DHT22;50827;47.014;7.652;2023-02-01T00:51:56;2.90;99.90
3752;DHT22;50827;47.014;7.652;2023-02-01T00:54:22;2.90;99.90
3752;DHT22;50827;47.014;7.652;2023-02-01T00:56:49;2.90;99.90
3752;DHT22;50827;47.014;7.652;2023-02-01T00:59:16;2.90;99.90
3752;DHT22;50827;47.014;7.652;2023-02-01T01:01:43;2.90;99.90
3752;DHT22;50827;47.014;7.652;2023-02-01T01:04:10;2.90;99.90
3752;DHT22;50827;47.014;7.652;2023-02-01T01:06:36;2.90;99.90
3752;DHT22;50827;47.014;7.652;2023-02-01T01:09:06;2.90;99.90
3752;DHT22;50827;47.014;7.652;2023-02-01T01:11:37;2.90;99.90
3752;DHT22;50827;47.014;7.652;2023-02-01T01:14:05;2.90;99.90
3752;DHT22;50827;47.014;7.652;2023-02-01T01:16:33;3.00;99.90
3752;DHT22;50827;47.014;7.652;2023-02-01T01:19:00;3.00;99.90
3752;DHT22;50827;47.014;7.652;2023-02-01T01:21:28;2.90;99.90
3752;DHT22;50827;47.014;7.652;2023-02-01T01:23:56;2.90;99.90
3752;DHT22;50827;47.014;7.652;2023-02-01T01:26:25;2.90;99.90
3752;DHT22;50827;47.014;7.652;2023-02-01T01:28:52;2.90;99.90
3752;DHT22;50827;47.014;7.652;2023-02-01T01:31:20;2.80;99.90
3752;DHT22;50827;47.014;7.652;2023-02-01T01:33:50;2.90;99.90
3752;DHT22;50827;47.014;7.652;2023-02-01T01:36:17;2.90;99.90
3752;DHT22;50827;47.014;7.652;2023-02-01T01:38:44;2.90;99.90
3752;DHT22;50827;47.014;7.652;2023-02-01T01:41:14;2.90;99.90
3752;DHT22;50827;47.014;7.652;2023-02-01T01:43:53;2.90;99.90
3752;DHT22;50827;47.014;7.652;2023-02-01T01:46:28;2.90;99.90
3752;DHT22;50827;47.014;7.652;2023-02-01T01:49:17;2.90;99.90
3752;DHT22;50827;47.014;7.652;2023-02-01T01:52:01;2.90;99.90
3752;DHT22;50827;47.014;7.652;2023-02-01T01:54:32;2.90;99.90
3752;DHT22;50827;47.014;7.652;2023-02-01T01:57:09;2.90;99.90
3752;DHT22;50827;47.014;7.652;2023-02-01T01:59:38;2.80;99.90
3752;DHT22;50827;47.014;7.652;2023-02-01T02:02:07;2.70;99.90
3752;DHT22;50827;47.014;7.652;2023-02-01T02:04:35;2.80;99.90
3752;DHT22;50827;47.014;7.652;2023-02-01T02:07:11;2.80;99.90
3752;DHT22;50827;47.014;7.652;2023-02-01T02:09:40;2.80;99.90
3752;DHT22;50827;47.014;7.652;2023-02-01T02:12:24;2.80;99.90
3752;DHT22;50827;47.014;7.652;2023-02-01T02:14:50;2.80;99.90
3752;DHT22;50827;47.014;7.652;2023-02-01T02:17:38;2.70;99.90
3752;DHT22;50827;47.014;7.652;2023-02-01T02:28:13;2.70;99.90
3752;DHT22;50827;47.014;7.652;2023-02-01T02:30:57;2.60;99.90
3752;DHT22;50827;47.014;7.652;2023-02-01T02:36:43;2.50;99.90
3752;DHT22;50827;47.014;7.652;2023-02-01T02:39:23;2.50;99.90
3752;DHT22;50827;47.014;7.652;2023-02-01T02:42:02;2.40;99.90
3752;DHT22;50827;47.014;7.652;2023-02-01T02:44:59;2.30;99.90
3752;DHT22;50827;47.014;7.652;2023-02-01T02:48:28;2.30;99.90
3752;DHT22;50827;47.014;7.652;2023-02-01T02:56:43;2.40;99.90
3752;DHT22;50827;47.014;7.652;2023-02-01T02:59:30;2.30;99.90
3752;DHT22;50827;47.014;7.652;2023-02-01T03:02:16;2.40;99.90
3752;DHT22;50827;47.014;7.652;2023-02-01T03:05:02;2.40;99.90
3752;DHT22;50827;47.014;7.652;2023-02-01T03:12:49;2.30;99.90
3752;DHT22;50827;47.014;7.652;2023-02-01T03:15:40;2.10;99.90
3752;DHT22;50827;47.014;7.652;2023-02-01T03:18:19;2.00;99.90
3752;DHT22;50827;47.014;7.652;2023-02-01T03:20:49;2.00;99.90
3752;DHT22;50827;47.014;7.652;2023-02-01T03:23:20;2.00;99.90
3752;DHT22;50827;47.014;7.652;2023-02-01T03:25:50;1.90;99.90
3752;DHT22;50827;47.014;7.652;2023-02-01T03:28:19;1.80;99.90
3752;DHT22;50827;47.014;7.652;2023-02-01T03:30:49;1.80;99.90
3752;DHT22;50827;47.014;7.652;2023-02-01T03:33:20;1.60;99.90
3752;DHT22;50827;47.014;7.652;2023-02-01T03:36:05;1.70;99.90
3752;DHT22;50827;47.014;7.652;2023-02-01T03:38:55;1.60;99.90
3752;DHT22;50827;47.014;7.652;2023-02-01T03:41:45;1.60;99.90
3752;DHT22;50827;47.014;7.652;2023-02-01T03:49:41;1.40;99.90
3752;DHT22;50827;47.014;7.652;2023-02-01T03:52:15;1.40;99.90
3752;DHT22;50827;47.014;7.652;2023-02-01T03:54:43;1.50;99.90
3752;DHT22;50827;47.014;7.652;2023-02-01T03:57:13;1.50;99.90
3752;DHT22;50827;47.014;7.652;2023-02-01T03:59:41;1.50;99.90
3752;DHT22;50827;47.014;7.652;2023-02-01T04:02:08;1.50;99.90
3752;DHT22;50827;47.014;7.652;2023-02-01T04:04:35;1.50;99.90
3752;DHT22;50827;47.014;7.652;2023-02-01T04:07:02;1.50;99.90
3752;DHT22;50827;47.014;7.652;2023-02-01T04:09:29;1.40;99.90
3752;DHT22;50827;47.014;7.652;2023-02-01T04:11:56;1.40;99.90
3752;DHT22;50827;47.014;7.652;2023-02-01T04:14:22;1.40;99.90
3752;DHT22;50827;47.014;7.652;2023-02-01T04:16:49;1.40;99.90
3752;DHT22;50827;47.014;7.652;2023-02-01T04:19:16;1.30;99.90
3752;DHT22;50827;47.014;7.652;2023-02-01T04:21:42;1.30;99.90
3752;DHT22;50827;47.014;7.652;2023-02-01T04:24:09;1.30;99.90
3752;DHT22;50827;47.014;7.652;2023-02-01T04:26:36;1.40;99.90
3752;DHT22;50827;47.014;7.652;2023-02-01T04:29:03;1.50;99.90
3752;DHT22;50827;47.014;7.652;2023-02-01T04:31:30;1.60;99.90
3752;DHT22;50827;47.014;7.652;2023-02-01T04:33:57;1.60;99.90
3752;DHT22;50827;47.014;7.652;2023-02-01T04:36:24;1.70;99.90
3752;DHT22;50827;47.014;7.652;2023-02-01T04:38:52;1.70;99.90
3752;DHT22;50827;47.014;7.652;2023-02-01T04:41:19;1.60;99.90
3752;DHT22;50827;47.014;7.652;2023-02-01T04:43:47;1.60;99.90
3752;DHT22;50827;47.014;7.652;2023-02-01T04:46:14;1.60;99.90
3752;DHT22;50827;47.014;7.652;2023-02-01T04:48:41;1.50;99.90
3752;DHT22;50827;47.014;7.652;2023-02-01T04:51:09;1.60;99.90
3752;DHT22;50827;47.014;7.652;2023-02-01T04:53:36;1.70;99.90
3752;DHT22;50827;47.014;7.652;2023-02-01T04:56:03;1.80;99.90
3752;DHT22;50827;47.014;7.652;2023-02-01T04:58:30;1.70;99.90
3752;DHT22;50827;47.014;7.652;2023-02-01T05:00:57;1.70;99.90
3752;DHT22;50827;47.014;7.652;2023-02-01T05:03:24;1.70;99.90
3752;DHT22;50827;47.014;7.652;2023-02-01T05:05:50;1.80;99.90
3752;DHT22;50827;47.014;7.652;2023-02-01T05:08:19;1.80;99.90
3752;DHT22;50827;47.014;7.652;2023-02-01T05:10:48;1.70;99.90
3752;DHT22;50827;47.014;7.652;2023-02-01T05:13:16;1.70;99.90
3752;DHT22;50827;47.014;7.652;2023-02-01T05:16:01;1.70;99.90
3752;DHT22;50827;47.014;7.652;2023-02-01T05:18:28;1.70;99.90
3752;DHT22;50827;47.014;7.652;2023-02-01T05:20:54;1.60;99.90
3752;DHT22;50827;47.014;7.652;2023-02-01T05:23:21;1.60;99.90
3752;DHT22;50827;47.014;7.652;2023-02-01T05:25:48;1.60;99.90
3752;DHT22;50827;47.014;7.652;2023-02-01T05:28:15;1.70;99.90
3752;DHT22;50827;47.014;7.652;2023-02-01T05:30:41;1.70;99.90
3752;DHT22;50827;47.014;7.652;2023-02-01T05:33:08;1.70;99.90
3752;DHT22;50827;47.014;7.652;2023-02-01T05:35:35;1.70;99.90
3752;DHT22;50827;47.014;7.652;2023-02-01T05:38:01;1.80;99.90
3752;DHT22;50827;47.014;7.652;2023-02-01T05:40:28;1.80;99.90
3752;DHT22;50827;47.014;7.652;2023-02-01T05:42:54;1.80;99.90
3752;DHT22;50827;47.014;7.652;2023-02-01T05:45:21;1.80;99.90
3752;DHT22;50827;47.014;7.652;2023-02-01T05:47:48;1.70;99.90
3752;DHT22;50827;47.014;7.652;2023-02-01T05:50:15;1.80;99.90
3752;DHT22;50827;47.014;7.652;2023-02-01T05:52:43;1.60;99.90
3752;DHT22;50827;47.014;7.652;2023-02-01T05:55:09;1.60;99.90
3752;DHT22;50827;47.014;7.652;2023-02-01T05:57:36;1.60;99.90
3752;DHT22;50827;47.014;7.652;2023-02-01T06:00:04;1.70;99.90
3752;DHT22;50827;47.014;7.652;2023-02-01T06:02:31;1.70;99.90
3752;DHT22;50827;47.014;7.652;2023-02-01T06:04:58;1.60;99.90
3752;DHT22;50827;47.014;7.652;2023-02-01T06:07:24;1.60;99.90
3752;DHT22;50827;47.014;7.652;2023-02-01T06:09:54;1.60;99.90
3752;DHT22;50827;47.014;7.652;2023-02-01T06:12:21;1.60;99.90
3752;DHT22;50827;47.014;7.652;2023-02-01T06:14:47;1.60;99.90
3752;DHT22;50827;47.014;7.652;2023-02-01T06:17:14;1.60;99.90
3752;DHT22;50827;47.014;7.652;2023-02-01T06:19:41;1.50;99.90
3752;DHT22;50827;47.014;7.652;2023-02-01T06:22:07;1.50;99.90
3752;DHT22;50827;47.014;7.652;2023-02-01T06:24:35;1.60;99.90
3752;DHT22;50827;47.014;7.652;2023-02-01T06:27:02;1.60;99.90
3752;DHT22;50827;47.014;7.652;2023-02-01T06:29:28;1.70;99.90
3752;DHT22;50827;47.014;7.652;2023-02-01T06:31:55;1.70;99.90
3752;DHT22;50827;47.014;7.652;2023-02-01T06:34:21;1.70;99.90
3752;DHT22;50827;47.014;7.652;2023-02-01T06:36:49;1.70;99.90
3752;DHT22;50827;47.014;7.652;2023-02-01T06:39:17;1.70;99.90
3752;DHT22;50827;47.014;7.652;2023-02-01T06:41:48;1.70;99.90
3752;DHT22;50827;47.014;7.652;2023-02-01T06:44:15;1.80;99.90
3752;DHT22;50827;47.014;7.652;2023-02-01T06:46:42;1.80;99.90
3752;DHT22;50827;47.014;7.652;2023-02-01T06:49:09;1.80;99.90
3752;DHT22;50827;47.014;7.652;2023-02-01T06:51:36;1.80;99.90
3752;DHT22;50827;47.014;7.652;2023-02-01T06:54:02;1.80;99.90
3752;DHT22;50827;47.014;7.652;2023-02-01T06:56:29;1.90;99.90
3752;DHT22;50827;47.014;7.652;2023-02-01T06:58:57;2.00;99.90
3752;DHT22;50827;47.014;7.652;2023-02-01T07:01:24;2.00;99.90
3752;DHT22;50827;47.014;7.652;2023-02-01T07:03:51;2.00;99.90
3752;DHT22;50827;47.014;7.652;2023-02-01T07:06:18;2.10;99.90
3752;DHT22;50827;47.014;7.652;2023-02-01T07:08:45;2.10;99.90
3752;DHT22;50827;47.014;7.652;2023-02-01T07:11:13;2.10;99.90
3752;DHT22;50827;47.014;7.652;2023-02-01T07:13:41;2.10;99.90
3752;DHT22;50827;47.014;7.652;2023-02-01T07:16:13;2.10;99.90
3752;DHT22;50827;47.014;7.652;2023-02-01T07:18:40;2.20;99.90
3752;DHT22;50827;47.014;7.652;2023-02-01T07:21:07;2.10;99.90
3752;DHT22;50827;47.014;7.652;2023-02-01T07:23:35;2.20;99.90
3752;DHT22;50827;47.014;7.652;2023-02-01T07:26:05;2.20;99.90
3752;DHT22;50827;47.014;7.652;2023-02-01T07:28:34;2.20;99.90
3752;DHT22;50827;47.014;7.652;2023-02-01T07:31:06;2.30;99.90
3752;DHT22;50827;47.014;7.652;2023-02-01T07:33:33;2.30;99.90
3752;DHT22;50827;47.014;7.652;2023-02-01T07:36:02;2.40;99.90
3752;DHT22;50827;47.014;7.652;2023-02-01T07:38:29;2.40;99.90
3752;DHT22;50827;47.014;7.652;2023-02-01T07:41:03;2.50;99.90
3752;DHT22;50827;47.014;7.652;2023-02-01T07:43:31;2.60;99.90
3752;DHT22;50827;47.014;7.652;2023-02-01T07:45:59;2.60;99.90
3752;DHT22;50827;47.014;7.652;2023-02-01T07:48:27;2.60;99.90
3752;DHT22;50827;47.014;7.652;2023-02-01T07:51:05;2.70;99.90
3752;DHT22;50827;47.014;7.652;2023-02-01T07:53:33;2.70;99.90
3752;DHT22;50827;47.014;7.652;2023-02-01T07:56:00;2.70;99.90
3752;DHT22;50827;47.014;7.652;2023-02-01T07:58:27;2.80;99.90
3752;DHT22;50827;47.014;7.652;2023-02-01T08:00:55;2.80;99.90
3752;DHT22;50827;47.014;7.652;2023-02-01T08:03:40;2.80;99.90
3752;DHT22;50827;47.014;7.652;2023-02-01T08:06:08;2.90;99.90
3752;DHT22;50827;47.014;7.652;2023-02-01T08:08:35;2.90;99.90
3752;DHT22;50827;47.014;7.652;2023-02-01T08:11:05;3.00;99.90
3752;DHT22;50827;47.014;7.652;2023-02-01T08:13:33;3.00;99.90
3752;DHT22;50827;47.014;7.652;2023-02-01T08:16:04;3.00;99.90
3752;DHT22;50827;47.014;7.652;2023-02-01T08:18:32;3.10;99.90
3752;DHT22;50827;47.014;7.652;2023-02-01T08:21:13;3.10;99.90
3752;DHT22;50827;47.014;7.652;2023-02-01T08:23:41;3.10;99.90
3752;DHT22;50827;47.014;7.652;2023-02-01T08:26:13;3.20;99.90
3752;DHT22;50827;47.014;7.652;2023-02-01T08:28:43;3.20;99.90
3752;DHT22;50827;47.014;7.652;2023-02-01T08:31:13;3.20;99.90
3752;DHT22;50827;47.014;7.652;2023-02-01T08:33:42;3.20;99.90
3752;DHT22;50827;47.014;7.652;2023-02-01T08:36:10;3.30;99.90
3752;DHT22;50827;47.014;7.652;2023-02-01T08:38:38;3.40;99.90
3752;DHT22;50827;47.014;7.652;2023-02-01T08:41:10;3.50;99.90
3752;DHT22;50827;47.014;7.652;2023-02-01T08:43:37;3.50;99.90
3752;DHT22;50827;47.014;7.652;2023-02-01T08:46:05;3.50;99.90
3752;DHT22;50827;47.014;7.652;2023-02-01T08:48:32;3.50;99.90
3752;DHT22;50827;47.014;7.652;2023-02-01T08:51:05;3.60;99.90
3752;DHT22;50827;47.014;7.652;2023-02-01T08:53:32;3.50;99.90
3752;DHT22;50827;47.014;7.652;2023-02-01T08:56:00;3.50;99.90
3752;DHT22;50827;47.014;7.652;2023-02-01T08:58:27;3.60;99.90
3752;DHT22;50827;47.014;7.652;2023-02-01T09:00:54;3.60;99.90
3752;DHT22;50827;47.014;7.652;2023-02-01T09:03:20;3.60;99.90
3752;DHT22;50827;47.014;7.652;2023-02-01T09:05:47;3.60;99.90
3752;DHT22;50827;47.014;7.652;2023-02-01T09:08:16;3.70;99.90
3752;DHT22;50827;47.014;7.652;2023-02-01T09:10:42;3.70;99.90
3752;DHT22;50827;47.014;7.652;2023-02-01T09:13:09;3.70;99.90
3752;DHT22;50827;47.014;7.652;2023-02-01T09:15:37;3.70;99.90
3752;DHT22;50827;47.014;7.652;2023-02-01T09:18:04;3.80;99.90
3752;DHT22;50827;47.014;7.652;2023-02-01T09:20:31;3.90;99.90
3752;DHT22;50827;47.014;7.652;2023-02-01T09:22:58;3.90;99.90
3752;DHT22;50827;47.014;7.652;2023-02-01T09:25:24;4.00;99.90
3752;DHT22;50827;47.014;7.652;2023-02-01T09:27:51;4.00;99.90
3752;DHT22;50827;47.014;7.652;2023-02-01T09:30:18;4.10;99.90
3752;DHT22;50827;47.014;7.652;2023-02-01T09:32:44;4.10;99.90
3752;DHT22;50827;47.014;7.652;2023-02-01T09:35:11;4.10;99.90
3752;DHT22;50827;47.014;7.652;2023-02-01T09:37:38;4.10;99.90
3752;DHT22;50827;47.014;7.652;2023-02-01T09:40:06;4.20;99.90
3752;DHT22;50827;47.014;7.652;2023-02-01T09:45:32;4.40;99.90
3752;DHT22;50827;47.014;7.652;2023-02-01T09:48:04;4.40;99.90
3752;DHT22;50827;47.014;7.652;2023-02-01T09:50:39;4.40;99.90
3752;DHT22;50827;47.014;7.652;2023-02-01T09:53:24;4.50;99.90
3752;DHT22;50827;47.014;7.652;2023-02-01T09:55:55;4.50;99.90
3752;DHT22;50827;47.014;7.652;2023-02-01T09:58:37;4.50;99.90
3752;DHT22;50827;47.014;7.652;2023-02-01T10:01:20;4.50;99.90
3752;DHT22;50827;47.014;7.652;2023-02-01T10:03:50;4.50;99.90
3752;DHT22;50827;47.014;7.652;2023-02-01T10:12:15;4.40;99.90
3752;DHT22;50827;47.014;7.652;2023-02-01T10:15:02;4.40;99.90
3752;DHT22;50827;47.014;7.652;2023-02-01T10:17:42;4.50;99.90
3752;DHT22;50827;47.014;7.652;2023-02-01T10:23:20;4.50;99.90
3752;DHT22;50827;47.014;7.652;2023-02-01T10:26:18;4.50;99.90
3752;DHT22;50827;47.014;7.652;2023-02-01T10:28:49;4.40;99.90
3752;DHT22;50827;47.014;7.652;2023-02-01T10:31:17;4.60;99.90
3752;DHT22;50827;47.014;7.652;2023-02-01T10:33:49;4.60;99.90
3752;DHT22;50827;47.014;7.652;2023-02-01T10:36:34;4.60;99.90
3752;DHT22;50827;47.014;7.652;2023-02-01T10:39:04;4.60;99.90
3752;DHT22;50827;47.014;7.652;2023-02-01T10:41:38;4.60;99.90
3752;DHT22;50827;47.014;7.652;2023-02-01T10:44:23;4.70;99.90
3752;DHT22;50827;47.014;7.652;2023-02-01T10:46:51;4.80;99.90
3752;DHT22;50827;47.014;7.652;2023-02-01T10:49:34;4.90;99.90
3752;DHT22;50827;47.014;7.652;2023-02-01T10:52:17;5.00;99.90
3752;DHT22;50827;47.014;7.652;2023-02-01T10:54:46;5.10;99.90
3752;DHT22;50827;47.014;7.652;2023-02-01T10:57:25;5.20;99.90
3752;DHT22;50827;47.014;7.652;2023-02-01T10:59:53;5.20;99.90
3752;DHT22;50827;47.014;7.652;2023-02-01T11:02:30;5.30;99.90
3752;DHT22;50827;47.014;7.652;2023-02-01T11:05:09;5.40;99.90
3752;DHT22;50827;47.014;7.652;2023-02-01T11:07:40;5.50;99.90
3752;DHT22;50827;47.014;7.652;2023-02-01T11:10:36;5.50;99.90
3752;DHT22;50827;47.014;7.652;2023-02-01T11:13:05;5.60;99.90
3752;DHT22;50827;47.014;7.652;2023-02-01T11:15:31;5.70;99.90
3752;DHT22;50827;47.014;7.652;2023-02-01T11:18:14;5.70;99.90
3752;DHT22;50827;47.014;7.652;2023-02-01T11:20:42;5.70;99.90
3752;DHT22;50827;47.014;7.652;2023-02-01T11:23:20;5.70;99.90
3752;DHT22;50827;47.014;7.652;2023-02-01T11:25:59;5.70;99.90
3752;DHT22;50827;47.014;7.652;2023-02-01T11:28:29;5.80;99.90
3752;DHT22;50827;47.014;7.652;2023-02-01T11:31:00;5.80;99.90
3752;DHT22;50827;47.014;7.652;2023-02-01T11:33:32;5.90;99.90
3752;DHT22;50827;47.014;7.652;2023-02-01T11:36:08;5.90;99.90
3752;DHT22;50827;47.014;7.652;2023-02-01T11:38:36;6.00;99.90
3752;DHT22;50827;47.014;7.652;2023-02-01T11:41:26;6.00;99.90
3752;DHT22;50827;47.014;7.652;2023-02-01T11:43:59;6.10;99.90
3752;DHT22;50827;47.014;7.652;2023-02-01T11:46:29;6.10;99.90
3752;DHT22;50827;47.014;7.652;2023-02-01T11:49:12;6.10;99.90
3752;DHT22;50827;47.014;7.652;2023-02-01T11:52:02;6.20;99.90
3752;DHT22;50827;47.014;7.652;2023-02-01T11:55:30;6.30;99.90
3752;DHT22;50827;47.014;7.652;2023-02-01T11:58:01;6.40;99.90
3752;DHT22;50827;47.014;7.652;2023-02-01T12:00:47;6.40;99.90
3752;DHT22;50827;47.014;7.652;2023-02-01T12:14:50;6.70;99.90
3752;DHT22;50827;47.014;7.652;2023-02-01T12:17:50;6.70;99.90
3752;DHT22;50827;47.014;7.652;2023-02-01T12:31:42;6.80;99.90
3752;DHT22;50827;47.014;7.652;2023-02-01T12:34:26;6.80;99.90
3752;DHT22;50827;47.014;7.652;2023-02-01T12:37:42;6.70;99.90
3752;DHT22;50827;47.014;7.652;2023-02-01T12:45:59;6.80;99.90
3752;DHT22;50827;47.014;7.652;2023-02-01T12:48:42;6.80;99.90
3752;DHT22;50827;47.014;7.652;2023-02-01T12:51:18;6.70;99.90
3752;DHT22;50827;47.014;7.652;2023-02-01T12:59:08;6.80;99.90
3752;DHT22;50827;47.014;7.652;2023-02-01T13:01:42;6.90;99.90
3752;DHT22;50827;47.014;7.652;2023-02-01T13:04:33;7.00;99.90
3752;DHT22;50827;47.014;7.652;2023-02-01T13:07:14;7.00;99.90
3752;DHT22;50827;47.014;7.652;2023-02-01T13:10:42;7.00;99.90
3752;DHT22;50827;47.014;7.652;2023-02-01T13:12:54;7.00;99.90
3752;DHT22;50827;47.014;7.652;2023-02-01T13:15:24;6.90;99.90
3752;DHT22;50827;47.014;7.652;2023-02-01T13:17:55;7.00;99.90
3752;DHT22;50827;47.014;7.652;2023-02-01T13:20:30;7.10;99.90
3752;DHT22;50827;47.014;7.652;2023-02-01T13:25:49;7.10;99.90
3752;DHT22;50827;47.014;7.652;2023-02-01T13:28:25;7.00;99.90
3752;DHT22;50827;47.014;7.652;2023-02-01T13:33:39;7.00;99.90
3752;DHT22;50827;47.014;7.652;2023-02-01T13:42:14;7.00;99.90
3752;DHT22;50827;47.014;7.652;2023-02-01T13:44:52;7.00;99.90
3752;DHT22;50827;47.014;7.652;2023-02-01T13:47:29;7.00;99.90
3752;DHT22;50827;47.014;7.652;2023-02-01T13:49:59;6.90;99.90
3752;DHT22;50827;47.014;7.652;2023-02-01T13:52:36;7.00;99.90
3752;DHT22;50827;47.014;7.652;2023-02-01T13:57:49;7.10;99.90
3752;DHT22;50827;47.014;7.652;2023-02-01T14:00:34;7.10;99.90
3752;DHT22;50827;47.014;7.652;2023-02-01T14:03:08;7.10;99.90
3752;DHT22;50827;47.014;7.652;2023-02-01T14:21:29;7.10;99.90
3752;DHT22;50827;47.014;7.652;2023-02-01T14:24:19;7.10;99.90
3752;DHT22;50827;47.014;7.652;2023-02-01T14:26:51;7.10;99.90
3752;DHT22;50827;47.014;7.652;2023-02-01T14:32:04;7.10;99.90
3752;DHT22;50827;47.014;7.652;2023-02-01T14:42:49;7.20;99.90
3752;DHT22;50827;47.014;7.652;2023-02-01T14:55:49;7.20;99.90
3752;DHT22;50827;47.014;7.652;2023-02-01T15:01:46;7.10;99.90
3752;DHT22;50827;47.014;7.652;2023-02-01T15:04:14;7.00;99.90
3752;DHT22;50827;47.014;7.652;2023-02-01T15:06:48;7.00;99.90
3752;DHT22;50827;47.014;7.652;2023-02-01T15:12:04;6.90;99.90
3752;DHT22;50827;47.014;7.652;2023-02-01T15:14:36;6.80;99.90
3752;DHT22;50827;47.014;7.652;2023-02-01T15:17:24;6.80;99.90
3752;DHT22;50827;47.014;7.652;2023-02-01T15:19:59;6.90;99.90
3752;DHT22;50827;47.014;7.652;2023-02-01T15:22:28;6.90;99.90
3752;DHT22;50827;47.014;7.652;2023-02-01T15:24:57;6.90;99.90
3752;DHT22;50827;47.014;7.652;2023-02-01T15:27:25;6.80;99.90
3752;DHT22;50827;47.014;7.652;2023-02-01T15:29:52;6.80;99.90
3752;DHT22;50827;47.014;7.652;2023-02-01T15:32:37;6.80;99.90
3752;DHT22;50827;47.014;7.652;2023-02-01T15:35:30;6.80;99.90
3752;DHT22;50827;47.014;7.652;2023-02-01T15:37:52;6.80;99.90
3752;DHT22;50827;47.014;7.652;2023-02-01T15:40:20;6.80;99.90
3752;DHT22;50827;47.014;7.652;2023-02-01T15:42:55;6.80;99.90
3752;DHT22;50827;47.014;7.652;2023-02-01T15:45:31;6.70;99.90
3752;DHT22;50827;47.014;7.652;2023-02-01T15:47:59;6.70;99.90
3752;DHT22;50827;47.014;7.652;2023-02-01T15:50:28;6.60;99.90
3752;DHT22;50827;47.014;7.652;2023-02-01T15:52:56;6.60;99.90
3752;DHT22;50827;47.014;7.652;2023-02-01T15:55:39;6.60;99.90
3752;DHT22;50827;47.014;7.652;2023-02-01T15:58:22;6.60;99.90
3752;DHT22;50827;47.014;7.652;2023-02-01T16:00:57;6.60;99.90
3752;DHT22;50827;47.014;7.652;2023-02-01T16:03:42;6.60;99.90
3752;DHT22;50827;47.014;7.652;2023-02-01T16:06:30;6.60;99.90
3752;DHT22;50827;47.014;7.652;2023-02-01T16:11:30;6.60;99.90
3752;DHT22;50827;47.014;7.652;2023-02-01T16:13:58;6.60;99.90
3752;DHT22;50827;47.014;7.652;2023-02-01T16:16:26;6.60;99.90
3752;DHT22;50827;47.014;7.652;2023-02-01T16:18:54;6.60;99.90
3752;DHT22;50827;47.014;7.652;2023-02-01T16:21:21;6.50;99.90
3752;DHT22;50827;47.014;7.652;2023-02-01T16:23:52;6.50;99.90
3752;DHT22;50827;47.014;7.652;2023-02-01T16:26:19;6.40;99.90
3752;DHT22;50827;47.014;7.652;2023-02-01T16:28:47;6.40;99.90
3752;DHT22;50827;47.014;7.652;2023-02-01T16:31:16;6.40;99.90
3752;DHT22;50827;47.014;7.652;2023-02-01T16:33:50;6.40;99.90
3752;DHT22;50827;47.014;7.652;2023-02-01T16:36:18;6.40;99.90
3752;DHT22;50827;47.014;7.652;2023-02-01T16:38:46;6.40;99.90
3752;DHT22;50827;47.014;7.652;2023-02-01T16:41:16;6.40;99.90
3752;DHT22;50827;47.014;7.652;2023-02-01T16:43:43;6.30;99.90
3752;DHT22;50827;47.014;7.652;2023-02-01T16:46:14;6.40;99.90
3752;DHT22;50827;47.014;7.652;2023-02-01T16:48:44;6.40;99.90
3752;DHT22;50827;47.014;7.652;2023-02-01T16:51:14;6.30;99.90
3752;DHT22;50827;47.014;7.652;2023-02-01T16:53:43;6.30;99.90
3752;DHT22;50827;47.014;7.652;2023-02-01T16:56:22;6.20;99.90
3752;DHT22;50827;47.014;7.652;2023-02-01T16:58:50;6.20;99.90
3752;DHT22;50827;47.014;7.652;2023-02-01T17:01:18;6.20;99.90
3752;DHT22;50827;47.014;7.652;2023-02-01T17:03:45;6.20;99.90
3752;DHT22;50827;47.014;7.652;2023-02-01T17:06:17;6.20;99.90
3752;DHT22;50827;47.014;7.652;2023-02-01T17:08:47;6.20;99.90
3752;DHT22;50827;47.014;7.652;2023-02-01T17:11:17;6.30;99.90
3752;DHT22;50827;47.014;7.652;2023-02-01T17:13:44;6.30;99.90
3752;DHT22;50827;47.014;7.652;2023-02-01T17:18:57;6.30;99.90
3752;DHT22;50827;47.014;7.652;2023-02-01T17:21:26;6.30;99.90
3752;DHT22;50827;47.014;7.652;2023-02-01T17:23:54;6.30;99.90
3752;DHT22;50827;47.014;7.652;2023-02-01T17:26:21;6.40;99.90
3752;DHT22;50827;47.014;7.652;2023-02-01T17:28:48;6.30;99.90
3752;DHT22;50827;47.014;7.652;2023-02-01T17:31:15;6.40;99.90
3752;DHT22;50827;47.014;7.652;2023-02-01T17:33:43;6.50;99.90
3752;DHT22;50827;47.014;7.652;2023-02-01T17:36:16;6.50;99.90
3752;DHT22;50827;47.014;7.652;2023-02-01T17:38:43;6.40;99.90
3752;DHT22;50827;47.014;7.652;2023-02-01T17:41:19;6.40;99.90
3752;DHT22;50827;47.014;7.652;2023-02-01T17:43:45;6.30;99.90
3752;DHT22;50827;47.014;7.652;2023-02-01T17:46:14;6.40;99.90
3752;DHT22;50827;47.014;7.652;2023-02-01T17:48:41;6.40;99.90
3752;DHT22;50827;47.014;7.652;2023-02-01T17:51:16;6.40;99.90
3752;DHT22;50827;47.014;7.652;2023-02-01T17:53:44;6.40;99.90
3752;DHT22;50827;47.014;7.652;2023-02-01T17:56:20;6.40;99.90
3752;DHT22;50827;47.014;7.652;2023-02-01T17:58:47;6.50;99.90
3752;DHT22;50827;47.014;7.652;2023-02-01T18:03:43;6.40;99.90
3752;DHT22;50827;47.014;7.652;2023-02-01T18:06:15;6.40;99.90
3752;DHT22;50827;47.014;7.652;2023-02-01T18:08:42;6.40;99.90
3752;DHT22;50827;47.014;7.652;2023-02-01T18:11:13;6.40;99.90
3752;DHT22;50827;47.014;7.652;2023-02-01T18:13:40;6.40;99.90
3752;DHT22;50827;47.014;7.652;2023-02-01T18:16:16;6.30;99.90
3752;DHT22;50827;47.014;7.652;2023-02-01T18:18:44;6.40;99.90
3752;DHT22;50827;47.014;7.652;2023-02-01T18:21:11;6.30;99.90
3752;DHT22;50827;47.014;7.652;2023-02-01T18:23:38;6.40;99.90
3752;DHT22;50827;47.014;7.652;2023-02-01T18:26:04;6.40;99.90
3752;DHT22;50827;47.014;7.652;2023-02-01T18:28:31;6.30;99.90
3752;DHT22;50827;47.014;7.652;2023-02-01T18:30:58;6.30;99.90
3752;DHT22;50827;47.014;7.652;2023-02-01T18:33:25;6.30;99.90
3752;DHT22;50827;47.014;7.652;2023-02-01T18:35:52;6.20;99.90
3752;DHT22;50827;47.014;7.652;2023-02-01T18:38:18;6.20;99.90
3752;DHT22;50827;47.014;7.652;2023-02-01T18:40:49;6.20;99.90
3752;DHT22;50827;47.014;7.652;2023-02-01T18:43:16;6.30;99.90
3752;DHT22;50827;47.014;7.652;2023-02-01T18:45:44;6.20;99.90
3752;DHT22;50827;47.014;7.652;2023-02-01T18:48:12;6.20;99.90